Terminal Aerodrome Forecast
Issued by NWS Boston, MA

Home | Current Version | Previous Version | Text Only | Print | Product List | Glossary On
Versions: 1 2 3 4 5 6 7 8 9 10 11 12 13 14 15 16 17 18 19 20 21
000
FTUS41 KBOX 012128 AAA
TAFPVD
TAF AMD
KPVD 012128Z 0121/0218 22015KT 4SM BR VCSH OVC008 WS020/23045KT
     FM012300 22015G22KT 6SM BR OVC015 WS020/23050KT
     FM020000 23015G23KT P6SM BKN035 WS020/24050KT
     FM020800 24013G25KT P6SM BKN080
     FM021700 28020G46KT P6SM FEW250=

USA.gov is the U.S. government's official web portal to all federal, state and local government web resources and services.